x

Smith Island, Wa (sisw1) Weather Station

4:00am - Fri 15th Dec 2017 All times are PST. -8 hours from GMT.

  • Wind
    14mph, 16mph gusts
  • Air Temp 43°f
  • Sea Pressure 1021.9mb
  • Smith Island, Wa
  • Smith Island, Wa

More Historic Weather Station data

Upgrade to MSW Pro to gain access to the past 30 days of data for over 8000 Wavebouys and Weather Stations around the globe.

Join

Comparision Forecast

View Surf forecast
   
Fri 12/15 4:00am 14 16 mph 1021.9mb 43f
3:00am 6 7 mph 1023.1mb 44f
2:00am 10 11 mph 1022.4mb 45f
1:00am 9 11 mph 1022.7mb 44f
12:00am 13 14 mph 1022.7mb 44f
Thu 12/14 11:00pm 7 8 mph 1023.3mb 44f
10:00pm 9 9 mph 1023.3mb 44f
9:00pm 6 7 mph 1023.1mb 43f
8:00pm  -  1 mph 1024mb 44f
7:00pm 6 6 mph 1023.9mb 44f
6:00pm 5 6 mph 1024.5mb 45f
5:00pm 3 3 mph 1024.9mb 46f
4:00pm 6 6 mph 1025.1mb 45f
3:00pm 6 7 mph 1025.5mb 46f
2:00pm 3 3 mph 1025.4mb 46f
12:00pm 3 5 mph 1026.7mb 46f
11:00am 2 2 mph 1027.5mb 46f
10:00am 1 2 mph 1028mb 45f
9:00am 2 2 mph 1027.8mb 44f
8:00am  -  1 mph 1027.7mb 44f
7:00am 3 5 mph 1028mb 44f
6:00am 2 2 mph 1028.3mb 43f
5:00am 5 6 mph 1028mb 43f
4:00am 7 7 mph 1028.2mb 43f
3:00am 6 6 mph 1028.6mb 43f
2:00am 5 6 mph 1029.2mb 45f
1:00am  -  0 mph 1029.3mb 45f
12:00am 3 3 mph 1029.6mb 45f
Wed 12/13 11:00pm 7 7 mph 1029.3mb 45f
10:00pm 2 2 mph 1029.5mb 46f
9:00pm 5 5 mph 1029.6mb 46f
8:00pm 9 10 mph 1029.8mb 46f
7:00pm 9 10 mph 1029.5mb 46f
6:00pm 7 8 mph 1029.4mb 46f
5:00pm 8 9 mph 1029.8mb 47f
4:00pm 7 8 mph 1030mb 47f
3:00pm 5 5 mph 1029.7mb 47f
2:00pm 5 5 mph 1029.9mb 48f
1:00pm 9 10 mph 1030mb 47f
12:00pm 7 9 mph 1030.5mb 47f
11:00am 10 14 mph 1031.1mb 46f
10:00am 9 11 mph 1031mb 45f
9:00am 5 5 mph 1031.2mb 45f
8:00am 7 8 mph 1031.1mb 44f
7:00am 9 11 mph 1030.7mb 45f
6:00am 10 13 mph 1030.7mb 45f
5:00am 7 7 mph 1030.2mb 44f
4:00am 10 10 mph 1030.3mb 45f
3:00am 9 10 mph 1030.3mb 45f
2:00am 5 6 mph 1030mb 45f
1:00am 6 8 mph 1030.5mb 46f
12:00am 5 7 mph 1031mb 46f
Tue 12/12 11:00pm 6 7 mph 1030.9mb 45f
10:00pm 9 13 mph 1030.7mb 45f
9:00pm 7 9 mph 1030mb 45f
8:00pm 6 8 mph 1029.5mb 45f
7:00pm 7 8 mph 1030mb 45f
6:00pm 5 6 mph 1030.2mb 45f
5:00pm 5 7 mph 1030.4mb 45f
4:00pm 1 2 mph 1030.5mb 45f
3:00pm  -  0 mph 1030.2mb 47f
2:00pm  -  2 mph 1030.6mb 47f
1:00pm  -  1 mph 1031.1mb 46f
12:00pm 2 3 mph 1031.8mb 45f
11:00am 3 5 mph 1032.8mb 44f
10:00am 3 3 mph 1032.3mb 44f
9:00am 3 5 mph 1032.2mb 43f
8:00am 5 6 mph 1031.6mb 43f
7:00am 5 6 mph 1031.4mb 43f
6:00am 6 7 mph 1030.8mb 43f
5:00am 8 8 mph 1030.7mb 44f
4:00am 7 8 mph 1030.6mb 43f
3:00am 7 8 mph 1031.1mb 43f
2:00am 5 6 mph 1031.1mb 43f
1:00am 7 8 mph 1030.9mb 44f
12:00am 8 9 mph 1030.5mb 44f
Mon 12/11 11:00pm 2 3 mph 1029.7mb 44f
10:00pm 7 8 mph 1028.8mb 43f
9:00pm 7 8 mph 1029mb 43f
8:00pm 8 9 mph 1028.8mb 44f
7:00pm 11 15 mph 1027.7mb 44f
6:00pm 8 8 mph 1028mb 44f
5:00pm 7 8 mph 1027.8mb 44f
4:00pm 8 10 mph 1027.5mb 43f
3:00pm 6 7 mph 1027.9mb 44f
2:00pm 3 3 mph 1027.5mb 44f